Mars Hill, Indiana
Current Conditions -  °F | °C
As of 2:54 PM on Thursday 30 Oct 2014 (Local Time) from KIND Reporting Station
Broken Clouds Broken Clouds  
Wind Chill: 52°   Ceiling: 25000
Heat Index: 52°   Visibility: 10mi
Dew Point: 34°   Wind: 3mph
Humidity: 50%   Direction: NA
Pressure: 30.09"   Gusts: NA
Location:  39.7251°N, 86.264°W
Report Text: KIND 301854Z VRB03KT 10SM FEW039 SCT160 BKN250 11/01 A3009 RMK AO2 SLP192 T01110011
Loading
Personal Weather Stations






























Interactive Weather Map
Tropical Storm Tracking
New forecast layout! Learn more

10-Day Weather Forecast

Advertisements
Track Severe Weather on mobile